Time;durP1;ratioP1;P1;durP2;ratioP2;P2;SDS_P1;SDS_P2;PMS_P1;PMS_P2;Temp;Humidity;BMP_temperature;BMP_pressure;BME280_temperature;BME280_humidity;BME280_pressure;Samples;Min_cycle;Max_cycle;Signal;HPM_P1;HPM_P2
2021/01/21 00:01:40;;;;;;;6.55;2.03;;;11.10;99.90;;;;;;5102276;28;39539;-78
2021/01/21 00:04:06;;;;;;;5.25;1.80;;;11.20;99.90;;;;;;5082113;28;37865;-78
2021/01/21 00:06:33;;;;;;;4.30;1.90;;;11.20;99.90;;;;;;5107490;28;38519;-78
2021/01/21 00:09:00;;;;;;;3.53;1.55;;;11.30;99.90;;;;;;5099358;28;37816;-78
2021/01/21 00:11:26;;;;;;;3.03;1.75;;;11.30;99.90;;;;;;5098736;28;39301;-78
2021/01/21 00:13:52;;;;;;;3.00;1.73;;;11.30;99.90;;;;;;5086350;28;39560;-78
2021/01/21 00:16:18;;;;;;;2.70;1.35;;;11.40;99.90;;;;;;5098580;28;38545;-78
2021/01/21 00:18:44;;;;;;;3.42;1.55;;;11.50;99.90;;;;;;5100749;28;37629;-77
2021/01/21 00:21:11;;;;;;;4.15;1.33;;;11.50;99.90;;;;;;5116391;28;38354;-78
2021/01/21 00:23:37;;;;;;;3.50;1.52;;;11.70;99.90;;;;;;5096969;28;38806;-78
2021/01/21 00:26:03;;;;;;;5.15;1.77;;;11.60;99.90;;;;;;5079852;28;37239;-79
2021/01/21 00:28:29;;;;;;;3.70;1.70;;;11.40;99.90;;;;;;5089780;28;36971;-80
2021/01/21 00:30:56;;;;;;;4.40;2.53;;;11.00;99.90;;;;;;5102027;28;38686;-80
2021/01/21 00:33:22;;;;;;;7.13;2.37;;;10.80;99.90;;;;;;5097441;28;39272;-80
2021/01/21 00:35:48;;;;;;;3.60;1.70;;;10.60;99.90;;;;;;5103164;28;39170;-79
2021/01/21 00:38:14;;;;;;;5.73;2.10;;;10.40;99.90;;;;;;5101492;28;37110;-78
2021/01/21 00:40:40;;;;;;;7.30;2.07;;;10.20;99.90;;;;;;5089359;28;40510;-80
2021/01/21 00:43:07;;;;;;;6.63;1.87;;;10.10;99.90;;;;;;5082254;28;40734;-80
2021/01/21 00:45:34;;;;;;;8.13;2.30;;;10.00;99.90;;;;;;5083550;28;38692;-78
2021/01/21 00:48:00;;;;;;;7.07;2.37;;;9.90;99.90;;;;;;5075646;28;37473;-77
2021/01/21 00:50:26;;;;;;;9.57;2.60;;;9.90;99.90;;;;;;5085073;28;39171;-78
2021/01/21 00:52:52;;;;;;;4.40;2.50;;;9.90;99.90;;;;;;5074727;28;39105;-79
2021/01/21 00:55:19;;;;;;;6.60;2.67;;;9.90;99.90;;;;;;5069439;28;37473;-80
2021/01/21 00:57:45;;;;;;;5.93;2.00;;;10.10;99.90;;;;;;5095578;28;37197;-78
2021/01/21 01:00:11;;;;;;;3.67;1.80;;;10.20;99.90;;;;;;5075278;28;39166;-79
2021/01/21 01:02:37;;;;;;;2.80;1.57;;;10.30;99.90;;;;;;5090897;28;39298;-78
2021/01/21 01:05:06;;;;;;;7.53;2.40;;;10.40;99.90;;;;;;5093441;28;39135;-78
2021/01/21 01:07:32;;;;;;;3.00;1.43;;;10.50;99.90;;;;;;5080556;28;48975;-79
2021/01/21 01:09:58;;;;;;;6.27;1.70;;;10.50;99.90;;;;;;5082260;28;40047;-78
2021/01/21 01:12:24;;;;;;;6.73;1.70;;;10.70;99.90;;;;;;5084765;28;39839;-77
2021/01/21 01:14:51;;;;;;;4.00;1.70;;;10.80;99.90;;;;;;5064574;28;39865;-77
2021/01/21 01:17:17;;;;;;;5.33;1.57;;;10.90;99.90;;;;;;5089302;28;38015;-78
2021/01/21 01:19:43;;;;;;;4.63;1.53;;;10.90;99.90;;;;;;5064619;28;38954;-78
2021/01/21 01:22:11;;;;;;;6.17;1.80;;;10.80;99.90;;;;;;5071858;28;42428;-78
2021/01/21 01:24:37;;;;;;;5.37;1.53;;;10.90;99.90;;;;;;5096236;28;38851;-79
2021/01/21 01:27:03;;;;;;;3.27;1.77;;;10.80;99.90;;;;;;5074901;28;37431;-79
2021/01/21 01:29:30;;;;;;;6.10;1.93;;;10.90;99.90;;;;;;5092739;28;39508;-78
2021/01/21 01:31:56;;;;;;;3.43;1.73;;;10.90;99.90;;;;;;5090282;28;38748;-79
2021/01/21 01:34:22;;;;;;;3.20;1.90;;;10.90;99.90;;;;;;5079711;28;39412;-79
2021/01/21 01:36:48;;;;;;;3.50;1.70;;;10.90;99.90;;;;;;5070084;28;38310;-78
2021/01/21 01:39:14;;;;;;;3.23;1.60;;;10.90;99.90;;;;;;5097068;28;37722;-78
2021/01/21 01:41:41;;;;;;;6.53;2.03;;;11.10;99.90;;;;;;5069365;28;39686;-78
2021/01/21 01:44:07;;;;;;;6.23;1.60;;;11.00;99.90;;;;;;5078289;28;37498;-77
2021/01/21 01:46:34;;;;;;;4.77;1.70;;;11.00;99.90;;;;;;5089056;28;37377;-80
2021/01/21 01:49:01;;;;;;;3.17;1.37;;;11.10;99.90;;;;;;5085545;28;39411;-79
2021/01/21 01:51:29;;;;;;;3.80;1.47;;;11.10;99.90;;;;;;5077879;28;47454;-77
2021/01/21 01:53:59;;;;;;;5.00;1.60;;;11.10;99.90;;;;;;5092582;28;40389;-79
2021/01/21 01:56:26;;;;;;;2.60;1.37;;;11.10;99.90;;;;;;5098912;28;38502;-79
2021/01/21 01:58:54;;;;;;;2.40;1.50;;;11.00;99.90;;;;;;5076980;28;39666;-77
2021/01/21 02:01:21;;;;;;;5.22;1.48;;;11.00;99.90;;;;;;5100478;27;36388;-77
2021/01/21 02:03:51;;;;;;;4.50;1.87;;;11.00;99.90;;;;;;5100427;28;38494;-78
2021/01/21 02:06:17;;;;;;;6.03;1.70;;;10.90;99.90;;;;;;5082373;28;38412;-78
2021/01/21 02:08:43;;;;;;;4.67;1.77;;;10.80;99.90;;;;;;5074664;28;38959;-78
2021/01/21 02:11:25;;;;;;;5.17;2.10;;;10.80;99.90;;;;;;5089606;28;42713;-77
2021/01/21 02:14:17;;;;;;;4.23;2.03;;;10.80;99.90;;;;;;5075981;28;39140;-78
2021/01/21 02:16:52;;;;;;;4.70;1.70;;;10.90;99.90;;;;;;5065260;28;47537;-77
2021/01/21 02:19:43;;;;;;;5.63;2.20;;;10.90;99.90;;;;;;5087244;28;39188;-77
2021/01/21 02:22:32;;;;;;;5.63;1.90;;;10.90;99.90;;;;;;5080788;28;37606;-80
2021/01/21 02:25:11;;;;;;;4.18;2.13;;;10.80;99.90;;;;;;5094726;28;38153;-78
2021/01/21 02:27:46;;;;;;;3.97;1.83;;;10.90;99.90;;;;;;5105022;28;48780;-78
2021/01/21 02:30:45;;;;;;;7.40;2.33;;;10.90;99.90;;;;;;5106542;28;38976;-77
2021/01/21 02:33:23;;;;;;;5.10;2.03;;;10.80;99.90;;;;;;5091804;28;39207;-79
2021/01/21 02:35:51;;;;;;;3.13;1.90;;;10.90;99.90;;;;;;5106396;28;37412;-77
2021/01/21 02:38:20;;;;;;;5.45;2.10;;;10.90;99.90;;;;;;5091248;28;37270;-78
2021/01/21 02:40:48;;;;;;;4.68;1.75;;;10.90;99.90;;;;;;5076704;28;39834;-77
2021/01/21 02:43:14;;;;;;;4.20;1.63;;;10.90;99.90;;;;;;5082863;28;37914;-78
2021/01/21 02:45:40;;;;;;;5.23;1.87;;;10.90;99.90;;;;;;5079559;28;37428;-77
2021/01/21 02:48:07;;;;;;;6.37;2.50;;;10.90;99.90;;;;;;5099938;28;37058;-78
2021/01/21 02:50:33;;;;;;;5.97;2.20;;;10.80;99.90;;;;;;5093461;28;39373;-77
2021/01/21 02:53:01;;;;;;;6.70;1.90;;;10.50;99.90;;;;;;5094031;28;39991;-78
2021/01/21 02:55:37;;;;;;;3.57;1.80;;;10.40;99.90;;;;;;5088749;28;38406;-78
2021/01/21 02:58:09;;;;;;;4.30;1.60;;;10.40;99.90;;;;;;5102195;28;37227;-78
2021/01/21 03:00:38;;;;;;;2.58;1.67;;;10.40;99.90;;;;;;5098725;27;39960;-79
2021/01/21 03:03:11;;;;;;;5.17;2.13;;;10.30;99.90;;;;;;5078925;28;37770;-79
2021/01/21 03:05:37;;;;;;;6.20;1.90;;;10.20;99.90;;;;;;5092389;28;38388;-77
2021/01/21 03:08:06;;;;;;;15.17;3.00;;;10.10;99.90;;;;;;5088527;28;38063;-78
2021/01/21 03:10:32;;;;;;;10.57;2.03;;;9.90;99.90;;;;;;5088132;28;39465;-78
2021/01/21 03:13:00;;;;;;;7.43;1.53;;;7.80;99.90;;;;;;5081701;28;37327;-80
2021/01/21 03:15:26;;;;;;;12.27;1.87;;;6.60;99.90;;;;;;5071605;28;37515;-78
2021/01/21 03:17:53;;;;;;;24.27;2.80;;;6.10;99.90;;;;;;5071424;28;37526;-78
2021/01/21 03:20:19;;;;;;;13.57;2.40;;;6.00;99.90;;;;;;5087254;28;38935;-78
2021/01/21 03:22:46;;;;;;;18.87;3.47;;;6.10;99.90;;;;;;5093401;28;38764;-78
2021/01/21 03:25:12;;;;;;;20.37;2.07;;;6.30;99.90;;;;;;5082222;28;39825;-78
2021/01/21 03:27:39;;;;;;;12.13;1.90;;;6.50;99.90;;;;;;5099933;28;20553;-78
2021/01/21 03:30:07;;;;;;;16.83;2.00;;;6.50;99.90;;;;;;5085191;28;37749;-78
2021/01/21 03:32:35;;;;;;;15.17;1.43;;;6.70;99.90;;;;;;5067235;28;40915;-77
2021/01/21 03:35:03;;;;;;;14.30;2.07;;;6.80;99.90;;;;;;5092656;28;38584;-78
2021/01/21 03:37:29;;;;;;;11.90;2.30;;;7.00;99.90;;;;;;5084106;28;48844;-78
2021/01/21 03:39:55;;;;;;;21.43;2.00;;;7.10;99.90;;;;;;5074116;28;38702;-77
2021/01/21 03:42:21;;;;;;;11.87;1.70;;;7.20;99.90;;;;;;5076657;28;37572;-78
2021/01/21 03:44:47;;;;;;;21.77;2.40;;;7.30;99.90;;;;;;5084379;28;38548;-78
2021/01/21 03:47:14;;;;;;;14.60;2.17;;;7.30;99.90;;;;;;5088716;28;36285;-77
2021/01/21 03:49:40;;;;;;;13.53;2.50;;;7.30;99.90;;;;;;5079513;28;39756;-78
2021/01/21 03:52:06;;;;;;;17.63;2.53;;;7.30;99.90;;;;;;5084754;28;39944;-77
2021/01/21 03:54:32;;;;;;;18.67;2.27;;;7.40;99.90;;;;;;5085705;28;38221;-78
2021/01/21 03:56:58;;;;;;;21.97;2.70;;;7.30;99.90;;;;;;5089157;28;37037;-78
2021/01/21 03:59:24;;;;;;;21.80;4.37;;;7.40;99.90;;;;;;5076355;28;39701;-77
2021/01/21 04:01:51;;;;;;;30.50;3.23;;;7.40;99.90;;;;;;5096943;28;39546;-77
2021/01/21 04:04:20;;;;;;;22.83;2.93;;;7.40;99.90;;;;;;5072778;28;39037;-77
2021/01/21 04:06:46;;;;;;;29.13;4.47;;;7.40;99.90;;;;;;5091667;28;38702;-78
2021/01/21 04:09:12;;;;;;;27.37;3.27;;;7.40;99.90;;;;;;5077564;28;38506;-78
2021/01/21 04:11:38;;;;;;;28.27;3.93;;;7.40;99.90;;;;;;5093675;28;37733;-78
2021/01/21 04:14:04;;;;;;;30.67;3.70;;;7.50;99.90;;;;;;5096446;28;38903;-78
2021/01/21 04:16:31;;;;;;;23.67;3.30;;;7.50;99.90;;;;;;5098296;28;37493;-78
2021/01/21 04:18:57;;;;;;;23.03;3.73;;;7.50;99.90;;;;;;5096520;28;40829;-79
2021/01/21 04:21:23;;;;;;;24.50;3.80;;;7.50;99.90;;;;;;5073372;28;39210;-78
2021/01/21 04:23:51;;;;;;;25.03;4.30;;;7.50;99.90;;;;;;5077652;27;37582;-78
2021/01/21 04:26:18;;;;;;;27.33;4.17;;;7.50;99.90;;;;;;5081359;28;37634;-78
2021/01/21 04:28:44;;;;;;;20.67;3.60;;;7.50;99.90;;;;;;5095406;28;37935;-79
2021/01/21 04:31:10;;;;;;;26.53;3.63;;;7.40;99.90;;;;;;5075195;28;39646;-79
2021/01/21 04:33:36;;;;;;;30.20;4.30;;;7.50;99.90;;;;;;5077247;28;38980;-79
2021/01/21 04:36:02;;;;;;;27.03;4.03;;;7.40;99.90;;;;;;5057815;28;38446;-78
2021/01/21 04:38:28;;;;;;;21.67;4.20;;;7.40;99.90;;;;;;5062876;28;38345;-78
2021/01/21 04:40:54;;;;;;;25.57;4.43;;;7.30;99.90;;;;;;5080402;28;38903;-78
2021/01/21 04:43:20;;;;;;;22.47;3.73;;;7.30;99.90;;;;;;5070791;28;39341;-78
2021/01/21 04:45:47;;;;;;;20.07;3.40;;;7.30;99.90;;;;;;5078936;28;38282;-78
2021/01/21 04:48:13;;;;;;;29.57;4.60;;;7.20;99.90;;;;;;5079807;28;39039;-78
2021/01/21 04:50:40;;;;;;;27.00;4.40;;;7.20;99.90;;;;;;5082920;28;38967;-78
2021/01/21 04:53:08;;;;;;;29.33;5.17;;;7.10;99.90;;;;;;5090475;28;39625;-78
2021/01/21 04:55:41;;;;;;;22.33;3.43;;;7.00;99.90;;;;;;5088831;28;37261;-78
2021/01/21 04:58:16;;;;;;;22.23;3.50;;;7.00;99.90;;;;;;5099966;28;38912;-78
2021/01/21 05:00:44;;;;;;;21.73;3.37;;;7.00;99.90;;;;;;5094621;28;39770;-78
2021/01/21 05:03:12;;;;;;;21.10;3.57;;;6.90;99.90;;;;;;5099327;28;38662;-78
2021/01/21 05:05:39;;;;;;;34.27;4.27;;;6.80;99.90;;;;;;5082751;28;38394;-78
2021/01/21 05:08:06;;;;;;;14.50;2.53;;;6.70;99.90;;;;;;5087518;28;39783;-78
2021/01/21 05:10:36;;;;;;;19.47;2.07;;;6.70;99.90;;;;;;5081760;28;38429;-77
2021/01/21 05:13:02;;;;;;;16.33;2.60;;;6.80;99.90;;;;;;5088651;28;38948;-78
2021/01/21 05:15:29;;;;;;;14.47;2.43;;;6.80;99.90;;;;;;5083145;28;37260;-77
2021/01/21 05:17:56;;;;;;;18.40;2.60;;;6.80;99.90;;;;;;5087441;28;39580;-77
2021/01/21 05:20:23;;;;;;;12.00;1.93;;;6.80;99.90;;;;;;5087825;28;38617;-77
2021/01/21 05:22:59;;;;;;;16.77;2.70;;;6.80;99.90;;;;;;5091563;28;39499;-78
2021/01/21 05:25:26;;;;;;;14.37;1.70;;;6.70;99.90;;;;;;5080332;28;38387;-77
2021/01/21 05:27:55;;;;;;;16.30;2.40;;;6.80;99.90;;;;;;5079858;28;39163;-77
2021/01/21 05:30:21;;;;;;;8.97;2.47;;;6.70;99.90;;;;;;5071790;28;38029;-78
2021/01/21 05:32:49;;;;;;;8.10;1.80;;;6.60;99.90;;;;;;5096301;28;38985;-77
2021/01/21 05:35:16;;;;;;;8.67;1.40;;;6.50;99.90;;;;;;5087834;27;37656;-77
2021/01/21 05:37:45;;;;;;;11.63;1.80;;;6.40;99.90;;;;;;5087203;28;39566;-78
2021/01/21 05:40:11;;;;;;;6.73;1.57;;;6.40;99.90;;;;;;5078305;28;40043;-77
2021/01/21 05:42:37;;;;;;;16.50;2.47;;;6.30;99.90;;;;;;5080656;28;39096;-78
2021/01/21 05:45:05;;;;;;;11.40;1.77;;;6.30;99.90;;;;;;5096963;28;36840;-78
2021/01/21 05:47:32;;;;;;;14.43;1.87;;;6.20;99.90;;;;;;5082194;28;47352;-77
2021/01/21 05:49:58;;;;;;;13.67;2.00;;;6.20;99.90;;;;;;5089623;28;40503;-78
2021/01/21 05:52:25;;;;;;;13.87;2.40;;;6.10;99.90;;;;;;5101394;28;39237;-77
2021/01/21 05:54:52;;;;;;;16.60;3.03;;;6.00;99.90;;;;;;5093855;28;37994;-78
2021/01/21 05:57:19;;;;;;;14.80;3.67;;;6.00;99.90;;;;;;5082633;28;38358;-77
2021/01/21 05:59:47;;;;;;;13.53;2.47;;;6.00;99.90;;;;;;5101277;28;39770;-78
2021/01/21 06:02:15;;;;;;;11.57;2.17;;;6.00;99.90;;;;;;5094403;28;38545;-77
2021/01/21 06:04:41;;;;;;;10.63;1.23;;;6.10;99.90;;;;;;5071701;28;38248;-77
2021/01/21 06:07:09;;;;;;;11.73;1.60;;;6.10;99.90;;;;;;5070484;28;39503;-77
2021/01/21 06:09:38;;;;;;;6.60;1.70;;;6.10;99.90;;;;;;5090298;27;38969;-77
2021/01/21 06:12:06;;;;;;;20.60;2.10;;;6.10;99.90;;;;;;5070866;28;39201;-78
2021/01/21 06:14:32;;;;;;;13.07;2.30;;;5.90;99.90;;;;;;5095276;28;38185;-77
2021/01/21 06:16:58;;;;;;;18.03;2.50;;;5.90;99.90;;;;;;5092133;28;39857;-78
2021/01/21 06:19:24;;;;;;;14.93;2.23;;;5.90;99.90;;;;;;5084949;28;39217;-78
2021/01/21 06:22:00;;;;;;;14.13;2.07;;;5.90;99.90;;;;;;5092380;28;39335;-77
2021/01/21 06:24:28;;;;;;;13.87;1.80;;;5.80;99.90;;;;;;5075668;28;38722;-77
2021/01/21 06:26:58;;;;;;;9.50;2.10;;;5.70;99.90;;;;;;5081975;28;39747;-77
2021/01/21 06:29:27;;;;;;;15.23;2.80;;;5.60;99.90;;;;;;5094804;28;38732;-77
2021/01/21 06:31:55;;;;;;;16.23;2.37;;;5.70;99.90;;;;;;5093075;28;38547;-77
2021/01/21 06:34:27;;;;;;;12.30;2.10;;;5.60;99.90;;;;;;5087175;28;37444;-78
2021/01/21 06:36:59;;;;;;;8.02;1.65;;;5.50;99.90;;;;;;5097101;28;39795;-77
2021/01/21 06:39:33;;;;;;;17.80;3.40;;;5.50;99.90;;;;;;5061694;28;40293;-77
2021/01/21 06:42:01;;;;;;;11.77;1.67;;;5.40;99.90;;;;;;5078983;28;39319;-77
2021/01/21 06:44:28;;;;;;;13.23;2.07;;;5.50;99.90;;;;;;5088443;28;48746;-75
2021/01/21 06:46:56;;;;;;;19.43;3.13;;;5.50;99.90;;;;;;5080824;28;39986;-76
2021/01/21 06:49:23;;;;;;;11.70;1.87;;;5.50;99.90;;;;;;5072335;28;39611;-74
2021/01/21 06:51:50;;;;;;;10.57;2.30;;;5.50;99.90;;;;;;5091413;28;39462;-73
2021/01/21 06:54:17;;;;;;;15.00;1.93;;;5.50;99.90;;;;;;5082663;28;36658;-76
2021/01/21 06:56:44;;;;;;;14.33;3.10;;;5.50;99.90;;;;;;5073804;28;37902;-77
2021/01/21 06:59:11;;;;;;;13.57;2.10;;;5.40;99.90;;;;;;5084741;28;39109;-77
2021/01/21 07:01:40;;;;;;;17.33;2.60;;;5.50;99.90;;;;;;5090090;28;40119;-77
2021/01/21 07:04:18;;;;;;;11.93;2.23;;;5.50;99.90;;;;;;5081350;28;38088;-76
2021/01/21 07:06:53;;;;;;;8.63;1.90;;;5.40;99.90;;;;;;5094434;28;40168;-77
2021/01/21 07:09:20;;;;;;;14.87;2.07;;;5.50;99.90;;;;;;5089188;27;38323;-77
2021/01/21 07:11:47;;;;;;;14.87;2.83;;;5.40;99.90;;;;;;5069418;28;38900;-77
2021/01/21 07:14:21;;;;;;;18.20;2.53;;;5.40;99.90;;;;;;5090255;28;38545;-77
2021/01/21 07:16:59;;;;;;;15.60;1.93;;;5.40;99.90;;;;;;5097930;28;38458;-77
2021/01/21 07:19:45;;;;;;;14.67;2.23;;;5.50;99.90;;;;;;5068714;28;39592;-75
2021/01/21 07:22:12;;;;;;;16.43;2.63;;;5.50;99.90;;;;;;5084739;28;39448;-75
2021/01/21 07:24:54;;;;;;;12.67;2.10;;;5.50;99.90;;;;;;5068038;28;37672;-75
2021/01/21 07:27:20;;;;;;;8.43;1.80;;;5.60;99.90;;;;;;5088361;28;39492;-75
2021/01/21 07:29:46;;;;;;;11.17;2.27;;;5.70;99.90;;;;;;5071906;28;39721;-75
2021/01/21 07:32:13;;;;;;;17.83;2.63;;;5.70;99.90;;;;;;5083210;27;39658;-76
2021/01/21 07:34:45;;;;;;;14.93;3.10;;;5.70;99.90;;;;;;5068585;28;36217;-76
2021/01/21 07:37:16;;;;;;;11.43;2.83;;;5.70;99.90;;;;;;5081734;28;38066;-75
2021/01/21 07:40:04;;;;;;;13.83;2.50;;;5.60;99.90;;;;;;5081977;28;37670;-75
2021/01/21 07:42:34;;;;;;;18.47;2.90;;;5.50;99.90;;;;;;5084651;28;47386;-74
2021/01/21 07:45:01;;;;;;;22.77;3.73;;;5.50;99.90;;;;;;5084690;27;37477;-75
2021/01/21 07:47:28;;;;;;;25.70;3.63;;;5.50;99.90;;;;;;5085173;27;37533;-73
2021/01/21 07:50:16;;;;;;;19.07;2.83;;;5.40;99.90;;;;;;5078007;28;37824;-75
2021/01/21 07:52:44;;;;;;;20.77;2.93;;;5.30;99.90;;;;;;5077801;28;47165;-74
2021/01/21 07:55:11;;;;;;;15.67;2.97;;;5.30;99.90;;;;;;5079848;28;37221;-75
2021/01/21 07:57:39;;;;;;;14.53;2.37;;;5.30;99.90;;;;;;5077888;28;39825;-75
2021/01/21 08:00:10;;;;;;;18.57;3.70;;;5.40;99.90;;;;;;5071592;27;38751;-74
2021/01/21 08:02:45;;;;;;;14.60;2.83;;;5.40;99.90;;;;;;5089785;28;38181;-73
2021/01/21 08:05:19;;;;;;;20.80;3.27;;;5.30;99.90;;;;;;5074028;28;36344;-73
2021/01/21 08:07:55;;;;;;;18.17;2.60;;;5.30;99.90;;;;;;5082263;28;39258;-74
2021/01/21 08:10:26;;;;;;;19.70;2.17;;;5.30;99.90;;;;;;5073899;28;39340;-74
2021/01/21 08:13:21;;;;;;;16.93;2.30;;;5.30;99.90;;;;;;5084153;28;38866;-74
2021/01/21 08:15:52;;;;;;;13.47;2.17;;;5.30;99.90;;;;;;5081888;28;48649;-73
2021/01/21 08:18:19;;;;;;;11.77;1.70;;;5.30;99.90;;;;;;5085827;28;38861;-73
2021/01/21 08:20:45;;;;;;;11.13;2.37;;;5.20;99.90;;;;;;5057821;28;37689;-74
2021/01/21 08:23:14;;;;;;;18.07;3.07;;;5.20;99.90;;;;;;5063653;28;39954;-74
2021/01/21 08:25:51;;;;;;;13.63;1.90;;;5.20;99.90;;;;;;5071904;28;37880;-75
2021/01/21 08:28:20;;;;;;;10.87;2.47;;;5.30;99.90;;;;;;5083457;27;37840;-75
2021/01/21 08:30:49;;;;;;;13.80;2.87;;;5.40;99.90;;;;;;5091872;27;38559;-76
2021/01/21 08:33:18;;;;;;;13.17;2.10;;;5.50;99.90;;;;;;5077033;28;37565;-76
2021/01/21 08:35:46;;;;;;;13.83;2.63;;;5.50;99.90;;;;;;5092050;28;38231;-75
2021/01/21 08:38:14;;;;;;;14.50;2.77;;;5.50;99.90;;;;;;5068985;28;37849;-76
2021/01/21 08:40:41;;;;;;;21.80;2.97;;;5.50;99.90;;;;;;5098487;28;39116;-76
2021/01/21 08:43:09;;;;;;;17.00;2.73;;;5.50;99.90;;;;;;5090473;28;40113;-76
2021/01/21 08:45:35;;;;;;;12.77;2.40;;;5.50;99.90;;;;;;5094004;28;37399;-76
2021/01/21 08:48:01;;;;;;;30.20;3.77;;;5.60;99.90;;;;;;5082673;28;39264;-76
2021/01/21 08:50:39;;;;;;;13.57;2.40;;;5.60;99.90;;;;;;5075148;28;47304;-76
2021/01/21 08:53:10;;;;;;;19.00;3.57;;;5.60;99.90;;;;;;5100973;28;38675;-76
2021/01/21 08:55:45;;;;;;;17.50;2.30;;;5.70;99.90;;;;;;5074804;28;37997;-77
2021/01/21 08:58:13;;;;;;;20.60;2.50;;;5.80;99.90;;;;;;5073636;28;37111;-75
2021/01/21 09:01:04;;;;;;;15.33;2.40;;;6.00;99.90;;;;;;5070389;28;40351;-75
2021/01/21 09:03:40;;;;;;;11.73;2.43;;;6.10;99.90;;;;;;5083306;28;48076;-76
2021/01/21 09:06:09;;;;;;;14.97;3.43;;;6.20;99.90;;;;;;5089160;28;37367;-75
2021/01/21 09:08:54;;;;;;;14.83;3.90;;;6.20;99.90;;;;;;5078907;28;39485;-76
2021/01/21 09:11:39;;;;;;;19.53;3.30;;;6.10;99.90;;;;;;5053838;28;38958;-75
2021/01/21 09:14:15;;;;;;;17.43;2.87;;;6.00;99.90;;;;;;5074759;28;39080;-76
2021/01/21 09:16:45;;;;;;;12.00;3.27;;;6.00;99.90;;;;;;5068693;28;36368;-76
2021/01/21 09:19:16;;;;;;;13.53;2.97;;;6.00;99.90;;;;;;5088137;27;39170;-76
2021/01/21 09:22:09;;;;;;;15.70;2.93;;;5.90;99.90;;;;;;5085790;28;38526;-77
2021/01/21 09:25:01;;;;;;;13.02;2.47;;;6.00;99.90;;;;;;5080381;28;47340;-75
2021/01/21 09:27:32;;;;;;;20.00;2.87;;;6.00;99.90;;;;;;5086689;28;36717;-75
2021/01/21 09:30:03;;;;;;;19.47;3.03;;;6.00;99.90;;;;;;5086326;28;37617;-75
2021/01/21 09:32:34;;;;;;;14.20;2.70;;;6.00;99.90;;;;;;5083486;28;46897;-76
2021/01/21 09:35:05;;;;;;;23.63;3.93;;;6.20;99.90;;;;;;5097887;28;37817;-75
2021/01/21 09:37:42;;;;;;;16.67;2.77;;;6.20;99.90;;;;;;5092863;28;47165;-76
2021/01/21 09:40:11;;;;;;;21.30;2.83;;;6.30;99.90;;;;;;5074504;28;37931;-76
2021/01/21 09:42:37;;;;;;;18.73;3.10;;;6.30;99.90;;;;;;5093211;28;37891;-75
2021/01/21 09:45:06;;;;;;;20.20;4.00;;;6.40;99.90;;;;;;5095207;27;39600;-76
2021/01/21 09:47:32;;;;;;;13.30;2.47;;;6.40;99.90;;;;;;5097220;28;36753;-76
2021/01/21 09:49:58;;;;;;;22.87;2.80;;;6.40;99.90;;;;;;5090498;27;40338;-76
2021/01/21 09:52:24;;;;;;;17.63;2.90;;;6.50;99.90;;;;;;5077270;28;38692;-75
2021/01/21 09:54:51;;;;;;;17.57;2.93;;;6.50;99.90;;;;;;5099565;28;38556;-75
2021/01/21 09:57:20;;;;;;;11.63;3.23;;;6.50;99.90;;;;;;5086128;28;38507;-75
2021/01/21 09:59:46;;;;;;;18.30;2.70;;;6.50;99.90;;;;;;5085785;28;39546;-76
2021/01/21 10:02:13;;;;;;;20.77;4.20;;;6.60;99.90;;;;;;5068954;28;40574;-75
2021/01/21 10:04:40;;;;;;;18.50;3.27;;;6.60;99.90;;;;;;5088646;28;38322;-75
2021/01/21 10:07:07;;;;;;;13.60;3.03;;;6.70;99.90;;;;;;5061031;28;36078;-75
2021/01/21 10:09:34;;;;;;;11.57;2.60;;;6.70;99.90;;;;;;5079186;28;39485;-76
2021/01/21 10:12:00;;;;;;;16.17;2.87;;;6.80;99.90;;;;;;5087918;28;39644;-76
2021/01/21 10:14:27;;;;;;;7.17;1.90;;;7.00;99.90;;;;;;5089666;28;48435;-75
2021/01/21 10:16:54;;;;;;;18.87;2.10;;;7.10;99.90;;;;;;5081238;28;38890;-76
2021/01/21 10:19:20;;;;;;;11.93;2.23;;;7.20;99.90;;;;;;5093823;28;39308;-75
2021/01/21 10:21:46;;;;;;;13.90;2.43;;;7.10;99.90;;;;;;5095121;27;39971;-76
2021/01/21 10:24:12;;;;;;;15.47;2.07;;;7.20;99.90;;;;;;5078534;28;39671;-79
2021/01/21 10:26:39;;;;;;;14.90;2.07;;;7.10;99.90;;;;;;5091533;28;37721;-75
2021/01/21 10:29:06;;;;;;;12.57;2.53;;;7.10;99.90;;;;;;5082235;28;39335;-75
2021/01/21 10:31:32;;;;;;;9.53;2.30;;;7.10;99.90;;;;;;5086141;28;39467;-75
2021/01/21 10:33:59;;;;;;;13.93;1.83;;;7.10;99.90;;;;;;5087198;28;37372;-75
2021/01/21 10:36:25;;;;;;;15.27;1.67;;;7.20;99.90;;;;;;5073167;28;37097;-75
2021/01/21 10:38:51;;;;;;;11.00;2.50;;;7.20;99.90;;;;;;5097911;28;38514;-75
2021/01/21 10:41:17;;;;;;;15.17;2.03;;;7.10;99.90;;;;;;5097553;28;38858;-75
2021/01/21 10:43:44;;;;;;;15.77;3.40;;;7.20;99.90;;;;;;5090424;28;39060;-75
2021/01/21 10:46:10;;;;;;;13.43;2.77;;;7.20;99.90;;;;;;5082098;28;35164;-76
2021/01/21 10:48:36;;;;;;;12.10;2.60;;;7.10;99.90;;;;;;5095078;28;39584;-75
2021/01/21 10:51:02;;;;;;;14.10;2.43;;;7.00;99.90;;;;;;5074712;27;40918;-74
2021/01/21 10:53:28;;;;;;;12.07;3.07;;;7.00;99.90;;;;;;5070490;28;37739;-75
2021/01/21 10:55:54;;;;;;;9.97;2.03;;;7.00;99.90;;;;;;5067288;28;37428;-75
2021/01/21 10:58:20;;;;;;;11.83;2.03;;;7.00;99.90;;;;;;5077120;28;39914;-76
2021/01/21 11:00:47;;;;;;;7.87;1.70;;;7.10;99.90;;;;;;5071884;28;39192;-75
2021/01/21 11:03:14;;;;;;;8.40;2.53;;;7.00;99.90;;;;;;5055437;28;39072;-75
2021/01/21 11:05:41;;;;;;;14.30;2.50;;;7.00;99.90;;;;;;5075682;28;38826;-76
2021/01/21 11:08:08;;;;;;;9.30;2.53;;;7.00;99.90;;;;;;5094146;28;39667;-75
2021/01/21 11:10:35;;;;;;;8.17;1.70;;;7.00;99.90;;;;;;5104502;27;39632;-75
2021/01/21 11:13:02;;;;;;;10.10;2.70;;;7.00;99.90;;;;;;5102561;28;38957;-76
2021/01/21 11:15:28;;;;;;;12.07;2.70;;;7.00;99.90;;;;;;5081304;28;37508;-75
2021/01/21 11:17:55;;;;;;;11.37;2.00;;;7.00;99.90;;;;;;5075971;28;39641;-75
2021/01/21 11:20:21;;;;;;;15.33;3.10;;;7.10;99.90;;;;;;5088485;27;40316;-75
2021/01/21 11:22:47;;;;;;;13.40;2.47;;;7.20;99.90;;;;;;5087988;28;38846;-76
2021/01/21 11:25:14;;;;;;;14.07;2.63;;;7.30;99.90;;;;;;5105993;28;37370;-76
2021/01/21 11:27:40;;;;;;;16.10;2.83;;;7.30;99.90;;;;;;5077310;28;39990;-76
2021/01/21 11:30:09;;;;;;;12.90;1.80;;;7.40;99.90;;;;;;5088721;28;39193;-78
2021/01/21 11:32:36;;;;;;;14.33;2.43;;;7.50;99.90;;;;;;5094871;28;37261;-75
2021/01/21 11:35:04;;;;;;;11.37;2.20;;;7.60;99.90;;;;;;5081445;28;37057;-76
2021/01/21 11:37:30;;;;;;;11.80;2.17;;;7.70;99.90;;;;;;5081608;28;47476;-76
2021/01/21 11:39:56;;;;;;;11.50;2.17;;;7.80;99.90;;;;;;5092968;27;39017;-75
2021/01/21 11:42:22;;;;;;;9.70;2.00;;;7.80;99.90;;;;;;5057451;28;39193;-76
2021/01/21 11:44:49;;;;;;;6.17;1.63;;;7.90;99.90;;;;;;5086798;28;36885;-75
2021/01/21 11:47:16;;;;;;;11.87;1.80;;;8.10;99.90;;;;;;5100162;27;39800;-75
2021/01/21 11:49:43;;;;;;;5.47;1.50;;;8.10;99.90;;;;;;5085429;28;39411;-76
2021/01/21 11:52:09;;;;;;;8.27;1.70;;;8.20;99.90;;;;;;5084092;28;38946;-75
2021/01/21 11:54:36;;;;;;;6.33;1.47;;;8.30;99.90;;;;;;5094353;28;37184;-75
2021/01/21 11:57:02;;;;;;;9.10;2.33;;;8.30;99.90;;;;;;5080605;28;38046;-75
2021/01/21 11:59:28;;;;;;;4.87;1.60;;;8.30;99.90;;;;;;5085848;28;38504;-76
2021/01/21 12:01:54;;;;;;;9.77;1.90;;;8.20;99.90;;;;;;5074197;28;37210;-76
2021/01/21 12:04:21;;;;;;;8.80;1.73;;;8.30;99.90;;;;;;5074742;28;36225;-75
2021/01/21 12:06:59;;;;;;;9.57;1.80;;;8.30;99.90;;;;;;5091033;28;40723;-75
2021/01/21 12:09:25;;;;;;;8.57;2.03;;;8.40;99.90;;;;;;5074341;28;38212;-75
2021/01/21 12:11:51;;;;;;;9.40;2.63;;;8.30;99.90;;;;;;5067449;28;37849;-75
2021/01/21 12:14:17;;;;;;;10.37;2.07;;;8.20;99.90;;;;;;5090915;28;37713;-73
2021/01/21 12:16:44;;;;;;;9.97;1.80;;;8.10;99.90;;;;;;5091411;28;38632;-75
2021/01/21 12:19:10;;;;;;;10.33;1.70;;;8.00;99.90;;;;;;5083330;28;38955;-75
2021/01/21 12:21:36;;;;;;;9.43;2.30;;;7.80;99.90;;;;;;5066599;28;37792;-74
2021/01/21 12:24:02;;;;;;;14.10;2.37;;;7.60;99.90;;;;;;5078642;28;36005;-76
2021/01/21 12:26:29;;;;;;;11.67;2.10;;;7.60;99.90;;;;;;5075044;28;38681;-76
2021/01/21 12:28:55;;;;;;;10.97;2.20;;;7.50;99.90;;;;;;5074620;28;38849;-75
2021/01/21 12:31:21;;;;;;;10.07;1.70;;;7.60;99.90;;;;;;5094844;27;38191;-74
2021/01/21 12:33:48;;;;;;;8.27;1.50;;;7.60;99.90;;;;;;5088060;27;37286;-75
2021/01/21 12:36:14;;;;;;;12.87;2.17;;;7.60;99.90;;;;;;5080455;28;38426;-75
2021/01/21 12:38:40;;;;;;;10.00;2.13;;;7.60;99.90;;;;;;5085758;28;38799;-76
2021/01/21 12:41:06;;;;;;;11.77;1.90;;;7.70;99.90;;;;;;5093040;27;39273;-75
2021/01/21 12:43:32;;;;;;;10.30;1.53;;;7.70;99.90;;;;;;5058767;28;37281;-76
2021/01/21 12:45:58;;;;;;;13.80;2.63;;;7.70;99.90;;;;;;5052813;28;37792;-75
2021/01/21 12:48:24;;;;;;;18.57;2.47;;;7.80;99.90;;;;;;5080110;28;37877;-75
2021/01/21 12:50:51;;;;;;;15.20;3.10;;;7.70;99.90;;;;;;5088848;28;38603;-75
2021/01/21 12:53:17;;;;;;;11.03;2.53;;;7.80;99.90;;;;;;5092990;28;38142;-75
2021/01/21 12:55:44;;;;;;;12.57;2.37;;;7.80;99.90;;;;;;5085634;28;39730;-76